sensor_id;sensor_type;location;lat;lon;timestamp;pressure;altitude;pressure_sealevel;temperature;humidity
66385;BME280;53426;55.872;37.462;2023-02-18T00:13:01;99263.94;;;-7.36;68.23
66385;BME280;53426;55.872;37.462;2023-02-18T00:15:28;99252.94;;;-7.45;67.89
66385;BME280;53426;55.872;37.462;2023-02-18T00:24:08;99258.06;;;-7.44;68.07
66385;BME280;53426;55.872;37.462;2023-02-18T00:27:12;99230.91;;;-7.60;68.01
66385;BME280;53426;55.872;37.462;2023-02-18T00:29:38;99186.72;;;-7.80;67.96
66385;BME280;53426;55.872;37.462;2023-02-18T00:32:04;99228.28;;;-7.57;68.33
66385;BME280;53426;55.872;37.462;2023-02-18T00:37:45;99243.44;;;-7.40;68.20
66385;BME280;53426;55.872;37.462;2023-02-18T00:40:14;99227.25;;;-7.47;67.84
66385;BME280;53426;55.872;37.462;2023-02-18T00:42:40;99217.09;;;-7.53;67.67
66385;BME280;53426;55.872;37.462;2023-02-18T00:45:07;99230.66;;;-7.43;67.50
66385;BME280;53426;55.872;37.462;2023-02-18T00:47:33;99218.78;;;-7.52;67.92
66385;BME280;53426;55.872;37.462;2023-02-18T00:50:00;99216.19;;;-7.50;68.10
66385;BME280;53426;55.872;37.462;2023-02-18T00:52:26;99202.66;;;-7.60;68.11
66385;BME280;53426;55.872;37.462;2023-02-18T01:01:03;99160.94;;;-7.77;68.51
66385;BME280;53426;55.872;37.462;2023-02-18T01:09:40;99185.44;;;-7.56;68.68
66385;BME280;53426;55.872;37.462;2023-02-18T01:12:06;99181.03;;;-7.50;69.14
66385;BME280;53426;55.872;37.462;2023-02-18T01:14:34;99170.00;;;-7.56;69.23
66385;BME280;53426;55.872;37.462;2023-02-18T01:17:01;99118.28;;;-7.86;69.18
66385;BME280;53426;55.872;37.462;2023-02-18T01:19:46;99173.44;;;-7.56;69.17
66385;BME280;53426;55.872;37.462;2023-02-18T01:22:11;99164.84;;;-7.53;69.03
66385;BME280;53426;55.872;37.462;2023-02-18T01:24:40;99160.66;;;-7.59;69.56
66385;BME280;53426;55.872;37.462;2023-02-18T01:27:06;99157.19;;;-7.58;69.21
66385;BME280;53426;55.872;37.462;2023-02-18T01:29:36;99157.22;;;-7.59;69.26
66385;BME280;53426;55.872;37.462;2023-02-18T01:32:02;99140.13;;;-7.64;69.94
66385;BME280;53426;55.872;37.462;2023-02-18T01:34:28;99111.34;;;-7.82;69.34
66385;BME280;53426;55.872;37.462;2023-02-18T01:36:54;99118.09;;;-7.75;69.41
66385;BME280;53426;55.872;37.462;2023-02-18T01:39:39;99135.81;;;-7.62;69.12
66385;BME280;53426;55.872;37.462;2023-02-18T01:42:06;99121.25;;;-7.61;69.27
66385;BME280;53426;55.872;37.462;2023-02-18T01:44:33;99121.19;;;-7.58;69.45
66385;BME280;53426;55.872;37.462;2023-02-18T01:46:59;99110.22;;;-7.66;69.38
66385;BME280;53426;55.872;37.462;2023-02-18T01:49:45;99112.75;;;-7.65;69.18
66385;BME280;53426;55.872;37.462;2023-02-18T01:52:19;99094.19;;;-7.80;69.83
66385;BME280;53426;55.872;37.462;2023-02-18T01:54:49;99096.63;;;-7.74;69.96
66385;BME280;53426;55.872;37.462;2023-02-18T01:57:20;99104.31;;;-7.71;69.83
66385;BME280;53426;55.872;37.462;2023-02-18T01:59:51;99100.03;;;-7.71;69.65
66385;BME280;53426;55.872;37.462;2023-02-18T02:02:21;99095.72;;;-7.70;69.99
66385;BME280;53426;55.872;37.462;2023-02-18T02:04:49;99092.31;;;-7.71;69.71
66385;BME280;53426;55.872;37.462;2023-02-18T02:07:17;99092.22;;;-7.66;70.21
66385;BME280;53426;55.872;37.462;2023-02-18T02:09:44;99092.13;;;-7.60;70.03
66385;BME280;53426;55.872;37.462;2023-02-18T02:15:05;99078.31;;;-7.56;70.25
66385;BME280;53426;55.872;37.462;2023-02-18T02:30:05;99067.94;;;-7.50;70.28
66385;BME280;53426;55.872;37.462;2023-02-18T02:33:01;99066.34;;;-7.57;69.57
66385;BME280;53426;55.872;37.462;2023-02-18T02:43:52;99053.56;;;-7.60;70.18
66385;BME280;53426;55.872;37.462;2023-02-18T02:46:42;99048.44;;;-7.62;70.52
66385;BME280;53426;55.872;37.462;2023-02-18T02:49:24;99041.69;;;-7.67;70.48
66385;BME280;53426;55.872;37.462;2023-02-18T02:52:00;99042.41;;;-7.59;70.80
66385;BME280;53426;55.872;37.462;2023-02-18T02:54:29;99033.25;;;-7.74;70.79
66385;BME280;53426;55.872;37.462;2023-02-18T03:00:05;99028.22;;;-7.80;70.86
66385;BME280;53426;55.872;37.462;2023-02-18T03:11:16;99010.41;;;-7.89;71.19
66385;BME280;53426;55.872;37.462;2023-02-18T03:16:45;99016.38;;;-7.87;71.43
66385;BME280;53426;55.872;37.462;2023-02-18T03:20:06;98992.50;;;-7.93;71.55
66385;BME280;53426;55.872;37.462;2023-02-18T03:22:59;99012.19;;;-7.91;71.90
66385;BME280;53426;55.872;37.462;2023-02-18T03:25:27;99005.13;;;-7.81;71.62
66385;BME280;53426;55.872;37.462;2023-02-18T03:28:18;99000.84;;;-7.81;71.36
66385;BME280;53426;55.872;37.462;2023-02-18T03:31:05;98992.06;;;-7.71;71.70
66385;BME280;53426;55.872;37.462;2023-02-18T03:34:00;98976.03;;;-7.83;71.72
66385;BME280;53426;55.872;37.462;2023-02-18T03:36:27;98995.72;;;-7.81;71.44
66385;BME280;53426;55.872;37.462;2023-02-18T03:39:06;98959.84;;;-7.87;71.74
66385;BME280;53426;55.872;37.462;2023-02-18T03:41:34;98972.59;;;-7.82;71.82
66385;BME280;53426;55.872;37.462;2023-02-18T03:44:03;98961.56;;;-7.86;71.94
66385;BME280;53426;55.872;37.462;2023-02-18T03:49:14;98943.50;;;-7.84;72.03
66385;BME280;53426;55.872;37.462;2023-02-18T03:51:40;98899.69;;;-8.20;72.37
66385;BME280;53426;55.872;37.462;2023-02-18T03:54:07;98942.53;;;-7.79;72.59
66385;BME280;53426;55.872;37.462;2023-02-18T03:56:52;98949.94;;;-7.64;72.41
66385;BME280;53426;55.872;37.462;2023-02-18T03:59:17;98941.69;;;-7.79;71.92
66385;BME280;53426;55.872;37.462;2023-02-18T04:04:48;98947.22;;;-7.97;73.11
66385;BME280;53426;55.872;37.462;2023-02-18T04:07:14;98916.44;;;-8.00;72.74
66385;BME280;53426;55.872;37.462;2023-02-18T04:09:40;98877.53;;;-8.24;73.03
66385;BME280;53426;55.872;37.462;2023-02-18T04:12:06;98944.34;;;-7.82;73.08
66385;BME280;53426;55.872;37.462;2023-02-18T04:14:31;98896.00;;;-8.07;73.37
66385;BME280;53426;55.872;37.462;2023-02-18T04:16:57;98935.16;;;-7.95;73.91
66385;BME280;53426;55.872;37.462;2023-02-18T04:22:07;98895.00;;;-7.99;73.72
66385;BME280;53426;55.872;37.462;2023-02-18T04:24:33;98885.38;;;-7.88;73.83
66385;BME280;53426;55.872;37.462;2023-02-18T04:29:43;98886.06;;;-7.80;73.07
66385;BME280;53426;55.872;37.462;2023-02-18T04:32:10;98889.38;;;-7.75;73.45
66385;BME280;53426;55.872;37.462;2023-02-18T04:34:36;98864.94;;;-7.94;72.71
66385;BME280;53426;55.872;37.462;2023-02-18T04:37:02;98890.59;;;-7.93;72.85
66385;BME280;53426;55.872;37.462;2023-02-18T04:39:36;98868.38;;;-7.95;73.00
66385;BME280;53426;55.872;37.462;2023-02-18T04:42:02;98859.47;;;-8.19;72.47
66385;BME280;53426;55.872;37.462;2023-02-18T04:44:36;98878.59;;;-7.92;72.85
66385;BME280;53426;55.872;37.462;2023-02-18T04:47:04;98856.72;;;-8.12;72.95
66385;BME280;53426;55.872;37.462;2023-02-18T04:50:07;98882.88;;;-7.91;72.76
66385;BME280;53426;55.872;37.462;2023-02-18T04:52:38;98900.91;;;-7.94;72.86
66385;BME280;53426;55.872;37.462;2023-02-18T04:55:05;98884.63;;;-7.93;73.60
66385;BME280;53426;55.872;37.462;2023-02-18T04:57:32;98861.97;;;-8.16;73.33
66385;BME280;53426;55.872;37.462;2023-02-18T04:59:58;98881.00;;;-7.85;73.61
66385;BME280;53426;55.872;37.462;2023-02-18T05:02:29;98879.97;;;-7.76;73.01
66385;BME280;53426;55.872;37.462;2023-02-18T05:04:55;98872.09;;;-7.69;72.58
66385;BME280;53426;55.872;37.462;2023-02-18T05:07:21;98870.53;;;-7.76;72.89
66385;BME280;53426;55.872;37.462;2023-02-18T05:09:47;98851.53;;;-7.69;72.45
66385;BME280;53426;55.872;37.462;2023-02-18T05:12:13;98857.25;;;-7.56;72.76
66385;BME280;53426;55.872;37.462;2023-02-18T05:20:34;98852.09;;;-7.56;72.32
66385;BME280;53426;55.872;37.462;2023-02-18T05:23:02;98833.94;;;-7.48;72.31
66385;BME280;53426;55.872;37.462;2023-02-18T05:26:07;98844.09;;;-7.42;71.50
66385;BME280;53426;55.872;37.462;2023-02-18T05:28:33;98833.16;;;-7.52;71.73
66385;BME280;53426;55.872;37.462;2023-02-18T05:30:58;98821.88;;;-7.46;71.13
66385;BME280;53426;55.872;37.462;2023-02-18T05:33:24;98829.78;;;-7.54;71.88
66385;BME280;53426;55.872;37.462;2023-02-18T05:35:50;98822.22;;;-7.60;71.66
66385;BME280;53426;55.872;37.462;2023-02-18T05:38:16;98819.91;;;-7.72;71.89
66385;BME280;53426;55.872;37.462;2023-02-18T05:40:42;98799.84;;;-7.56;71.50
66385;BME280;53426;55.872;37.462;2023-02-18T05:43:08;98798.25;;;-7.61;71.65
66385;BME280;53426;55.872;37.462;2023-02-18T05:45:34;98803.34;;;-7.59;71.54
66385;BME280;53426;55.872;37.462;2023-02-18T05:48:19;98791.19;;;-7.52;70.75
66385;BME280;53426;55.872;37.462;2023-02-18T05:53:29;98791.44;;;-7.28;70.79
66385;BME280;53426;55.872;37.462;2023-02-18T05:55:54;98776.06;;;-7.31;70.94
66385;BME280;53426;55.872;37.462;2023-02-18T06:01:10;98780.44;;;-7.33;70.04
66385;BME280;53426;55.872;37.462;2023-02-18T06:03:47;98776.16;;;-7.34;69.57
66385;BME280;53426;55.872;37.462;2023-02-18T06:06:22;98754.97;;;-7.42;70.21
66385;BME280;53426;55.872;37.462;2023-02-18T06:08:48;98776.31;;;-7.40;70.03
66385;BME280;53426;55.872;37.462;2023-02-18T06:11:14;98731.44;;;-7.62;69.86
66385;BME280;53426;55.872;37.462;2023-02-18T06:16:40;98741.34;;;-7.47;69.43
66385;BME280;53426;55.872;37.462;2023-02-18T06:19:25;98726.72;;;-7.45;69.27
66385;BME280;53426;55.872;37.462;2023-02-18T06:22:10;98752.72;;;-7.22;68.40
66385;BME280;53426;55.872;37.462;2023-02-18T06:24:59;98729.72;;;-7.28;68.48
66385;BME280;53426;55.872;37.462;2023-02-18T06:27:24;98749.56;;;-6.99;68.21
66385;BME280;53426;55.872;37.462;2023-02-18T06:30:04;98741.16;;;-7.05;68.48
66385;BME280;53426;55.872;37.462;2023-02-18T06:32:34;98725.75;;;-7.07;67.73
66385;BME280;53426;55.872;37.462;2023-02-18T06:35:01;98740.34;;;-7.07;68.13
66385;BME280;53426;55.872;37.462;2023-02-18T06:37:28;98729.16;;;-7.06;67.89
66385;BME280;53426;55.872;37.462;2023-02-18T06:39:54;98727.63;;;-7.13;68.09
66385;BME280;53426;55.872;37.462;2023-02-18T06:42:20;98727.63;;;-6.81;67.40
66385;BME280;53426;55.872;37.462;2023-02-18T06:44:46;98699.13;;;-6.75;66.99
66385;BME280;53426;55.872;37.462;2023-02-18T06:47:12;98702.69;;;-6.79;67.43
66385;BME280;53426;55.872;37.462;2023-02-18T06:53:21;98708.31;;;-6.08;66.28
66385;BME280;53426;55.872;37.462;2023-02-18T06:55:47;98720.66;;;-6.17;64.43
66385;BME280;53426;55.872;37.462;2023-02-18T06:58:13;98699.84;;;-6.11;64.75
66385;BME280;53426;55.872;37.462;2023-02-18T07:05:14;98687.16;;;-4.66;62.19
66385;BME280;53426;55.872;37.462;2023-02-18T07:10:32;98672.03;;;-4.08;59.16
66385;BME280;53426;55.872;37.462;2023-02-18T07:12:59;98675.16;;;-3.78;58.04
66385;BME280;53426;55.872;37.462;2023-02-18T07:15:25;98666.97;;;-3.47;57.49
66385;BME280;53426;55.872;37.462;2023-02-18T07:17:57;98666.81;;;-3.64;56.83
66385;BME280;53426;55.872;37.462;2023-02-18T07:20:24;98658.69;;;-3.15;55.85
66385;BME280;53426;55.872;37.462;2023-02-18T07:32:32;98650.16;;;-1.67;50.56
66385;BME280;53426;55.872;37.462;2023-02-18T07:34:58;98624.66;;;-1.42;49.12
66385;BME280;53426;55.872;37.462;2023-02-18T07:37:24;98623.13;;;-1.29;49.93
66385;BME280;53426;55.872;37.462;2023-02-18T07:39:49;98630.41;;;-0.69;48.04
66385;BME280;53426;55.872;37.462;2023-02-18T07:42:22;98626.59;;;-0.15;46.99
66385;BME280;53426;55.872;37.462;2023-02-18T07:44:48;98613.22;;;0.07;46.37
66385;BME280;53426;55.872;37.462;2023-02-18T07:47:15;98606.03;;;-0.20;46.35
66385;BME280;53426;55.872;37.462;2023-02-18T07:49:46;98600.09;;;-0.06;46.04
66385;BME280;53426;55.872;37.462;2023-02-18T07:55:18;98585.44;;;-1.53;49.30
66385;BME280;53426;55.872;37.462;2023-02-18T07:58:25;98594.63;;;-1.47;49.96
66385;BME280;53426;55.872;37.462;2023-02-18T08:01:16;98548.25;;;-2.96;51.36
66385;BME280;53426;55.872;37.462;2023-02-18T08:03:42;98575.66;;;-3.10;53.02
66385;BME280;53426;55.872;37.462;2023-02-18T08:06:21;98563.06;;;-3.38;54.27
66385;BME280;53426;55.872;37.462;2023-02-18T08:08:49;98561.94;;;-3.71;54.39
66385;BME280;53426;55.872;37.462;2023-02-18T08:11:16;98560.47;;;-3.38;54.48
66385;BME280;53426;55.872;37.462;2023-02-18T08:13:46;98550.22;;;-3.80;55.21
66385;BME280;53426;55.872;37.462;2023-02-18T08:16:13;98568.78;;;-3.70;55.78
66385;BME280;53426;55.872;37.462;2023-02-18T08:19:01;98546.50;;;-3.93;56.73
66385;BME280;53426;55.872;37.462;2023-02-18T08:24:33;98567.94;;;-3.51;56.07
66385;BME280;53426;55.872;37.462;2023-02-18T08:26:58;98560.50;;;-3.99;56.97
66385;BME280;53426;55.872;37.462;2023-02-18T08:32:09;98547.97;;;-4.51;58.93
66385;BME280;53426;55.872;37.462;2023-02-18T08:34:35;98553.94;;;-4.49;59.52
66385;BME280;53426;55.872;37.462;2023-02-18T08:37:01;98556.63;;;-4.52;59.67
66385;BME280;53426;55.872;37.462;2023-02-18T08:39:27;98549.59;;;-4.71;60.11
66385;BME280;53426;55.872;37.462;2023-02-18T08:41:53;98534.28;;;-4.32;59.72
66385;BME280;53426;55.872;37.462;2023-02-18T08:44:18;98505.03;;;-4.32;59.29
66385;BME280;53426;55.872;37.462;2023-02-18T08:46:44;98523.53;;;-4.01;59.42
66385;BME280;53426;55.872;37.462;2023-02-18T08:49:31;98500.94;;;-3.57;58.01
66385;BME280;53426;55.872;37.462;2023-02-18T08:52:00;98483.69;;;-3.56;57.38
66385;BME280;53426;55.872;37.462;2023-02-18T08:54:31;98513.44;;;-3.66;58.00
66385;BME280;53426;55.872;37.462;2023-02-18T08:56:57;98486.47;;;-3.81;58.22
66385;BME280;53426;55.872;37.462;2023-02-18T08:59:24;98475.22;;;-3.80;58.53
66385;BME280;53426;55.872;37.462;2023-02-18T09:02:29;98504.47;;;-3.39;57.92
66385;BME280;53426;55.872;37.462;2023-02-18T09:08:14;98478.63;;;-3.59;58.42
66385;BME280;53426;55.872;37.462;2023-02-18T09:10:43;98495.34;;;-3.66;58.82
66385;BME280;53426;55.872;37.462;2023-02-18T09:13:09;98490.66;;;-3.58;58.95
66385;BME280;53426;55.872;37.462;2023-02-18T09:15:34;98481.84;;;-3.54;59.03
66385;BME280;53426;55.872;37.462;2023-02-18T09:18:06;98459.69;;;-3.99;59.84
66385;BME280;53426;55.872;37.462;2023-02-18T09:23:26;98460.31;;;-4.14;61.09
66385;BME280;53426;55.872;37.462;2023-02-18T09:25:54;98448.28;;;-3.95;60.84
66385;BME280;53426;55.872;37.462;2023-02-18T09:28:20;98449.41;;;-4.00;60.74
66385;BME280;53426;55.872;37.462;2023-02-18T09:31:12;98453.78;;;-4.23;61.30
66385;BME280;53426;55.872;37.462;2023-02-18T09:33:51;98432.78;;;-3.95;61.20
66385;BME280;53426;55.872;37.462;2023-02-18T09:36:28;98397.00;;;-3.85;60.30
66385;BME280;53426;55.872;37.462;2023-02-18T09:38:54;98416.84;;;-3.86;60.35
66385;BME280;53426;55.872;37.462;2023-02-18T09:44:41;98420.97;;;-3.61;60.45
66385;BME280;53426;55.872;37.462;2023-02-18T09:52:44;98394.94;;;-3.58;60.09
66385;BME280;53426;55.872;37.462;2023-02-18T10:05:35;98356.16;;;-0.61;53.38
66385;BME280;53426;55.872;37.462;2023-02-18T10:08:08;98344.25;;;-0.07;52.06
66385;BME280;53426;55.872;37.462;2023-02-18T10:11:23;98355.81;;;1.26;49.54
66385;BME280;53426;55.872;37.462;2023-02-18T10:13:53;98350.28;;;1.58;47.38
66385;BME280;53426;55.872;37.462;2023-02-18T10:17:30;98334.56;;;0.79;50.45
66385;BME280;53426;55.872;37.462;2023-02-18T10:19:55;98344.63;;;0.16;49.83
66385;BME280;53426;55.872;37.462;2023-02-18T10:22:59;98288.88;;;-1.11;52.03
66385;BME280;53426;55.872;37.462;2023-02-18T10:25:29;98309.88;;;-1.00;52.87
66385;BME280;53426;55.872;37.462;2023-02-18T10:32:26;98322.19;;;-1.03;53.60
66385;BME280;53426;55.872;37.462;2023-02-18T10:35:01;98317.28;;;-1.23;52.91
66385;BME280;53426;55.872;37.462;2023-02-18T10:43:18;98309.59;;;-1.09;53.29
66385;BME280;53426;55.872;37.462;2023-02-18T10:46:07;98306.47;;;-0.86;52.66
66385;BME280;53426;55.872;37.462;2023-02-18T10:51:32;98296.69;;;-1.58;54.07
66385;BME280;53426;55.872;37.462;2023-02-18T10:53:59;98283.97;;;-1.78;54.35
66385;BME280;53426;55.872;37.462;2023-02-18T10:59:23;98322.75;;;-2.24;55.82
66385;BME280;53426;55.872;37.462;2023-02-18T11:02:15;98267.72;;;-0.75;53.08
66385;BME280;53426;55.872;37.462;2023-02-18T11:04:44;98253.94;;;-0.19;50.76
66385;BME280;53426;55.872;37.462;2023-02-18T11:07:18;98267.44;;;0.70;49.13
66385;BME280;53426;55.872;37.462;2023-02-18T11:09:57;98256.91;;;1.11;47.88
66385;BME280;53426;55.872;37.462;2023-02-18T11:12:39;98285.09;;;1.31;47.26
66385;BME280;53426;55.872;37.462;2023-02-18T11:15:36;98254.97;;;1.14;48.90
66385;BME280;53426;55.872;37.462;2023-02-18T11:18:43;98277.16;;;1.07;48.89
66385;BME280;53426;55.872;37.462;2023-02-18T11:21:33;98246.75;;;1.46;47.51
66385;BME280;53426;55.872;37.462;2023-02-18T11:24:21;98251.69;;;1.11;47.75
66385;BME280;53426;55.872;37.462;2023-02-18T11:34:00;98242.50;;;-0.30;50.84
66385;BME280;53426;55.872;37.462;2023-02-18T11:36:50;98236.94;;;-0.24;51.07
66385;BME280;53426;55.872;37.462;2023-02-18T11:39:25;98215.88;;;-0.34;51.09
66385;BME280;53426;55.872;37.462;2023-02-18T11:41:58;98240.78;;;0.25;49.96
66385;BME280;53426;55.872;37.462;2023-02-18T11:44:41;98219.97;;;0.25;50.00
66385;BME280;53426;55.872;37.462;2023-02-18T11:49:41;98198.31;;;-0.45;50.58
66385;BME280;53426;55.872;37.462;2023-02-18T11:52:25;98192.56;;;-0.78;51.73
66385;BME280;53426;55.872;37.462;2023-02-18T11:55:16;98203.72;;;-1.36;52.97
66385;BME280;53426;55.872;37.462;2023-02-18T11:57:48;98190.53;;;-1.92;53.74
66385;BME280;53426;55.872;37.462;2023-02-18T12:03:27;98197.28;;;-2.21;55.38
66385;BME280;53426;55.872;37.462;2023-02-18T12:06:00;98165.41;;;-2.39;55.85
66385;BME280;53426;55.872;37.462;2023-02-18T12:08:33;98187.22;;;-2.59;56.37
66385;BME280;53426;55.872;37.462;2023-02-18T12:11:06;98150.56;;;-2.84;56.48
66385;BME280;53426;55.872;37.462;2023-02-18T12:13:49;98193.84;;;-2.86;57.00
66385;BME280;53426;55.872;37.462;2023-02-18T12:16:37;98191.13;;;-3.00;57.36
66385;BME280;53426;55.872;37.462;2023-02-18T12:22:19;98182.81;;;-2.89;57.79
66385;BME280;53426;55.872;37.462;2023-02-18T12:25:42;98175.66;;;-3.19;58.79
66385;BME280;53426;55.872;37.462;2023-02-18T12:37:28;98160.75;;;-3.48;59.55
66385;BME280;53426;55.872;37.462;2023-02-18T12:42:56;98167.59;;;-3.64;60.44
66385;BME280;53426;55.872;37.462;2023-02-18T12:50:49;98154.16;;;-3.71;60.88
66385;BME280;53426;55.872;37.462;2023-02-18T12:53:36;98157.19;;;-3.63;60.81
66385;BME280;53426;55.872;37.462;2023-02-18T13:07:37;98165.66;;;-3.95;61.48
66385;BME280;53426;55.872;37.462;2023-02-18T13:13:30;98117.81;;;-4.04;61.61
66385;BME280;53426;55.872;37.462;2023-02-18T13:16:03;98117.63;;;-4.18;61.94
66385;BME280;53426;55.872;37.462;2023-02-18T13:21:27;98115.50;;;-4.46;62.29
66385;BME280;53426;55.872;37.462;2023-02-18T13:36:01;98082.19;;;-4.52;62.47
66385;BME280;53426;55.872;37.462;2023-02-18T13:41:00;98105.88;;;-4.42;63.30
66385;BME280;53426;55.872;37.462;2023-02-18T13:46:20;98099.44;;;-4.52;63.69
66385;BME280;53426;55.872;37.462;2023-02-18T13:48:52;98097.84;;;-4.55;64.07
66385;BME280;53426;55.872;37.462;2023-02-18T13:51:40;98086.06;;;-4.60;63.80
66385;BME280;53426;55.872;37.462;2023-02-18T14:00:35;98097.72;;;-4.71;64.32
66385;BME280;53426;55.872;37.462;2023-02-18T14:03:20;98091.50;;;-4.67;64.76
66385;BME280;53426;55.872;37.462;2023-02-18T14:05:47;98098.91;;;-4.78;64.67
66385;BME280;53426;55.872;37.462;2023-02-18T14:08:27;98035.16;;;-5.13;65.28
66385;BME280;53426;55.872;37.462;2023-02-18T14:22:47;98092.97;;;-4.98;65.23
66385;BME280;53426;55.872;37.462;2023-02-18T14:27:42;98053.97;;;-5.11;65.60
66385;BME280;53426;55.872;37.462;2023-02-18T14:32:55;98050.06;;;-5.20;66.08
66385;BME280;53426;55.872;37.462;2023-02-18T14:41:03;98072.94;;;-5.12;65.70
66385;BME280;53426;55.872;37.462;2023-02-18T14:52:35;98045.66;;;-5.18;65.23
66385;BME280;53426;55.872;37.462;2023-02-18T14:55:05;98026.75;;;-5.37;65.26
66385;BME280;53426;55.872;37.462;2023-02-18T14:57:43;98043.91;;;-5.17;65.64
66385;BME280;53426;55.872;37.462;2023-02-18T15:00:18;98047.69;;;-5.24;65.61
66385;BME280;53426;55.872;37.462;2023-02-18T15:02:47;98016.28;;;-5.34;66.01
66385;BME280;53426;55.872;37.462;2023-02-18T15:05:22;98036.75;;;-5.11;65.62
66385;BME280;53426;55.872;37.462;2023-02-18T15:07:56;98044.47;;;-5.29;65.59
66385;BME280;53426;55.872;37.462;2023-02-18T15:10:27;97993.22;;;-5.37;65.66
66385;BME280;53426;55.872;37.462;2023-02-18T15:12:56;98037.72;;;-5.13;65.59
66385;BME280;53426;55.872;37.462;2023-02-18T15:15:23;98023.06;;;-5.31;65.39
66385;BME280;53426;55.872;37.462;2023-02-18T15:17:50;97999.69;;;-5.28;65.46
66385;BME280;53426;55.872;37.462;2023-02-18T15:20:16;98022.38;;;-5.16;65.72
66385;BME280;53426;55.872;37.462;2023-02-18T15:22:42;97993.28;;;-5.38;65.19
66385;BME280;53426;55.872;37.462;2023-02-18T15:29:47;98001.88;;;-5.19;65.34
66385;BME280;53426;55.872;37.462;2023-02-18T15:32:18;98002.09;;;-5.24;65.06
66385;BME280;53426;55.872;37.462;2023-02-18T15:34:45;98001.38;;;-5.46;65.01
66385;BME280;53426;55.872;37.462;2023-02-18T15:37:18;97967.66;;;-5.41;65.43
66385;BME280;53426;55.872;37.462;2023-02-18T15:39:46;97929.22;;;-5.66;65.23
66385;BME280;53426;55.872;37.462;2023-02-18T15:46:10;97945.75;;;-5.52;65.54
66385;BME280;53426;55.872;37.462;2023-02-18T15:51:46;97954.25;;;-5.50;65.12
66385;BME280;53426;55.872;37.462;2023-02-18T15:54:17;97970.28;;;-5.43;65.65
66385;BME280;53426;55.872;37.462;2023-02-18T15:57:00;97992.81;;;-5.28;65.85
66385;BME280;53426;55.872;37.462;2023-02-18T15:59:35;97999.56;;;-5.25;65.68
66385;BME280;53426;55.872;37.462;2023-02-18T16:02:21;97940.88;;;-5.58;65.47
66385;BME280;53426;55.872;37.462;2023-02-18T16:04:53;97912.50;;;-5.58;65.57
66385;BME280;53426;55.872;37.462;2023-02-18T16:13:02;97944.56;;;-5.44;65.91
66385;BME280;53426;55.872;37.462;2023-02-18T16:15:39;97951.28;;;-5.40;65.67
66385;BME280;53426;55.872;37.462;2023-02-18T16:21:02;97911.31;;;-5.51;65.84
66385;BME280;53426;55.872;37.462;2023-02-18T16:23:40;97949.03;;;-5.29;66.25
66385;BME280;53426;55.872;37.462;2023-02-18T16:34:55;97982.22;;;-5.22;65.68
66385;BME280;53426;55.872;37.462;2023-02-18T16:37:21;97949.16;;;-5.32;66.08
66385;BME280;53426;55.872;37.462;2023-02-18T16:40:34;97900.72;;;-5.44;66.01
66385;BME280;53426;55.872;37.462;2023-02-18T16:43:12;97950.34;;;-5.21;65.79
66385;BME280;53426;55.872;37.462;2023-02-18T16:45:45;97924.72;;;-5.24;66.05
66385;BME280;53426;55.872;37.462;2023-02-18T16:50:53;97891.66;;;-5.34;65.81
66385;BME280;53426;55.872;37.462;2023-02-18T16:53:44;97948.38;;;-5.16;65.91
66385;BME280;53426;55.872;37.462;2023-02-18T16:56:27;97918.28;;;-5.15;66.00
66385;BME280;53426;55.872;37.462;2023-02-18T16:58:55;97901.16;;;-5.35;66.26
66385;BME280;53426;55.872;37.462;2023-02-18T17:05:03;97922.47;;;-5.31;66.66
66385;BME280;53426;55.872;37.462;2023-02-18T17:07:29;97911.16;;;-5.29;66.49
66385;BME280;53426;55.872;37.462;2023-02-18T17:09:58;97902.53;;;-5.28;66.83
66385;BME280;53426;55.872;37.462;2023-02-18T17:12:24;97888.03;;;-5.30;66.86
66385;BME280;53426;55.872;37.462;2023-02-18T17:14:50;97906.88;;;-5.11;66.97
66385;BME280;53426;55.872;37.462;2023-02-18T17:17:19;97914.63;;;-5.11;66.64
66385;BME280;53426;55.872;37.462;2023-02-18T17:19:47;97900.88;;;-5.12;66.98
66385;BME280;53426;55.872;37.462;2023-02-18T17:22:38;97906.75;;;-5.08;66.86
66385;BME280;53426;55.872;37.462;2023-02-18T17:25:10;97877.72;;;-5.30;66.82
66385;BME280;53426;55.872;37.462;2023-02-18T17:27:38;97927.47;;;-5.10;66.57
66385;BME280;53426;55.872;37.462;2023-02-18T17:30:07;97878.94;;;-5.20;66.83
66385;BME280;53426;55.872;37.462;2023-02-18T17:32:33;97881.75;;;-5.25;66.89
66385;BME280;53426;55.872;37.462;2023-02-18T17:34:59;97882.81;;;-5.12;66.87
66385;BME280;53426;55.872;37.462;2023-02-18T17:37:25;97891.56;;;-5.14;66.94
66385;BME280;53426;55.872;37.462;2023-02-18T17:39:51;97886.13;;;-5.08;66.76
66385;BME280;53426;55.872;37.462;2023-02-18T17:42:17;97886.03;;;-5.07;66.56
66385;BME280;53426;55.872;37.462;2023-02-18T17:44:43;97876.69;;;-5.09;67.03
66385;BME280;53426;55.872;37.462;2023-02-18T17:47:09;97882.50;;;-5.23;66.77
66385;BME280;53426;55.872;37.462;2023-02-18T17:49:37;97891.28;;;-5.08;66.82
66385;BME280;53426;55.872;37.462;2023-02-18T17:52:04;97874.88;;;-5.07;66.33
66385;BME280;53426;55.872;37.462;2023-02-18T17:54:30;97891.78;;;-5.01;67.03
66385;BME280;53426;55.872;37.462;2023-02-18T17:56:56;97868.34;;;-5.14;66.60
66385;BME280;53426;55.872;37.462;2023-02-18T17:59:22;97871.53;;;-5.09;66.96
66385;BME280;53426;55.872;37.462;2023-02-18T18:01:52;97872.50;;;-5.12;66.89
66385;BME280;53426;55.872;37.462;2023-02-18T18:04:21;97874.72;;;-5.04;66.77
66385;BME280;53426;55.872;37.462;2023-02-18T18:06:47;97857.81;;;-5.10;66.73
66385;BME280;53426;55.872;37.462;2023-02-18T18:09:14;97878.81;;;-5.00;66.56
66385;BME280;53426;55.872;37.462;2023-02-18T18:11:40;97884.84;;;-4.99;66.61
66385;BME280;53426;55.872;37.462;2023-02-18T18:14:06;97898.63;;;-5.00;66.51
66385;BME280;53426;55.872;37.462;2023-02-18T18:51:51;97821.31;;;-5.02;66.05
66385;BME280;53426;55.872;37.462;2023-02-18T18:54:19;97847.03;;;-4.83;65.84
66385;BME280;53426;55.872;37.462;2023-02-18T18:56:46;97841.88;;;-4.83;66.14
66385;BME280;53426;55.872;37.462;2023-02-18T18:59:15;97840.13;;;-4.83;66.00
66385;BME280;53426;55.872;37.462;2023-02-18T19:01:40;97858.03;;;-4.80;66.27
66385;BME280;53426;55.872;37.462;2023-02-18T19:04:06;97838.22;;;-4.79;66.69